Terminal Aerodrome Forecast
Issued by NWS Charleston, WV

Home | Current Version | Previous Version | Text Only | Print | Product List | Glossary On
Versions: 1 2 3 4 5 6 7 8 9 10 11 12 13 14 15 16 17 18 19 20 21
000
FTUS41 KRLX 291800 RRA
TAFBKW
TAF
KBKW 291800Z 2918/3018 29008KT P6SM FEW040
     FM292300 VRB03KT P6SM SCT120 BKN250
     FM300600 14006KT P6SM BKN100
     FM301100 14008KT 6SM -SHRA OVC050
     FM301400 15007KT 4SM -SHRA BR OVC025=

USA.gov is the U.S. government's official web portal to all federal, state and local government web resources and services.